»·PEaware :: WJA1024 KEUG-KSFO

WJA1024 :: KEUG-KSFO

FLIGHT INFORMATION

Flight Status: Arrived
Operator:
Westjet Airlines
More flights by this operator :: More flights under this callsign
Pilot: Mike E. (18363)
Aircraft: BOEING 727-100
(B721)
More flights by this aircraft type
Origin: KEUG Mahlon Sweet
United States
Destination: KSFO San Francisco Intl
United States
More flights between these airports :: More routes between these airports
Route: +EUG1 RBG MLBEC BDEGA3
File this flight plan on PilotEdge
Remarks:
Altitude:
(Current/Filed)
25,000ft
Speed:
(Current/Filed)
360kts
Departed: 25-Nov-18 09:57 PM
Arrived: 25-Nov-18 11:01 PM
Distance/Time
Traveled:
392nm/1:04
Distance/Time
To Go:
Arrived

Flight Plot

Page will automatically refresh every two minutes.

Flight plan parsing failed; only flown route is shown


Map Options




Map Legend


Flown Route
Filed Route
Departure Airport
Arrival Airport
Navaid (VOR, NDB)
Fix

Horizontal Profiles

Position Reports

Time Latitude Longitude Heading Altitude Ground
Speed
25-Nov-18 21:38 44.120242 -123.214315 164 374ft 0kts
25-Nov-18 21:39 44.120242 -123.214314 164 374ft 0kts
25-Nov-18 21:40 44.120242 -123.214314 164 374ft 0kts
25-Nov-18 21:41 44.120242 -123.214314 164 374ft 0kts
25-Nov-18 21:42 44.120242 -123.214314 164 374ft 0kts
25-Nov-18 21:43 44.120242 -123.214314 164 374ft 0kts
25-Nov-18 21:44 44.120242 -123.214314 164 374ft 0kts
25-Nov-18 21:45 44.120242 -123.214314 164 374ft 0kts
25-Nov-18 21:46 44.120242 -123.214314 164 374ft 0kts
25-Nov-18 21:47 44.120242 -123.214314 164 374ft 0kts
25-Nov-18 21:48 44.120242 -123.214314 164 374ft 0kts
25-Nov-18 21:49 44.120276 -123.214328 164 374ft 3kts
25-Nov-18 21:50 44.120980 -123.214413 262 373ft 0kts
25-Nov-18 21:51 44.120980 -123.214413 262 373ft 0kts
25-Nov-18 21:52 44.120980 -123.214413 262 373ft 0kts
25-Nov-18 21:53 44.120980 -123.214413 262 373ft 0kts
25-Nov-18 21:54 44.120980 -123.214413 262 374ft 0kts
25-Nov-18 21:55 44.122520 -123.215386 329 372ft 15kts
25-Nov-18 21:56 44.126377 -123.217055 0 369ft 18kts
25-Nov-18 21:57 44.131885 -123.217172 359 365ft 18kts
25-Nov-18 21:58 44.135084 -123.217286 336 362ft 10kts
25-Nov-18 21:59 44.135185 -123.219023 217 362ft 13kts
25-Nov-18 22:00 44.118746 -123.218799 178 476ft 171kts
25-Nov-18 22:01 44.062724 -123.216094 179 3260ft 248kts
25-Nov-18 22:02 43.992193 -123.210740 179 7641ft 260kts
25-Nov-18 22:03 43.911677 -123.204152 180 9028ft 351kts
25-Nov-18 22:04 43.820495 -123.199188 180 13519ft 324kts
25-Nov-18 22:05 43.728284 -123.194355 181 16159ft 342kts
25-Nov-18 22:06 43.631320 -123.189299 182 18504ft 357kts
25-Nov-18 22:07 43.530126 -123.184005 182 20436ft 374kts
25-Nov-18 22:08 43.428591 -123.178773 183 22196ft 386kts
25-Nov-18 22:09 43.319733 -123.173158 183 23801ft 397kts
25-Nov-18 22:10 43.208096 -123.165095 173 25196ft 414kts
25-Nov-18 22:11 43.094024 -123.154243 183 26335ft 417kts
25-Nov-18 22:12 42.976759 -123.148562 183 27333ft 431kts
25-Nov-18 22:13 42.856790 -123.142673 182 28416ft 439kts
25-Nov-18 22:14 42.735843 -123.136704 182 29721ft 438kts
25-Nov-18 22:15 42.622042 -123.131158 183 30801ft 438kts
25-Nov-18 22:16 42.499450 -123.125248 182 31263ft 454kts
25-Nov-18 22:17 42.370215 -123.119004 182 31261ft 479kts
25-Nov-18 22:18 42.239994 -123.112725 182 31261ft 500kts
25-Nov-18 22:19 42.098806 -123.105948 182 31261ft 518kts
25-Nov-18 22:20 41.959738 -123.099301 182 31262ft 531kts
25-Nov-18 22:21 41.811913 -123.092253 182 31272ft 533kts
25-Nov-18 22:22 41.665610 -123.085325 182 31288ft 522kts
25-Nov-18 22:23 41.521956 -123.078562 182 31290ft 515kts
25-Nov-18 22:24 41.379842 -123.071901 182 31291ft 510kts
25-Nov-18 22:25 41.239173 -123.065340 182 31293ft 509kts
25-Nov-18 22:26 41.097960 -123.058779 182 31290ft 509kts
25-Nov-18 22:27 40.956505 -123.052289 181 31206ft 513kts
25-Nov-18 22:28 40.815184 -123.045724 181 31190ft 518kts
25-Nov-18 22:29 40.671030 -123.039107 181 31191ft 522kts
25-Nov-18 22:30 40.526419 -123.032494 181 31192ft 526kts
25-Nov-18 22:31 40.404569 -123.026952 181 31192ft 527kts
25-Nov-18 22:32 40.234288 -123.019235 181 31201ft 526kts
25-Nov-18 22:33 40.112838 -123.013758 181 31214ft 526kts
25-Nov-18 22:34 39.942411 -123.006099 181 31219ft 526kts
25-Nov-18 22:35 39.821441 -123.000688 180 31212ft 526kts
25-Nov-18 22:36 39.679201 -122.994350 181 31217ft 526kts
25-Nov-18 22:37 39.533662 -122.987890 180 31219ft 526kts
25-Nov-18 22:38 39.387915 -122.981453 180 31220ft 526kts
25-Nov-18 22:39 39.242039 -122.975034 180 31222ft 527kts
25-Nov-18 22:40 39.095525 -122.968613 180 31223ft 528kts
25-Nov-18 22:41 38.950120 -122.962297 180 31109ft 512kts
25-Nov-18 22:42 38.813889 -122.940374 167 29380ft 488kts
25-Nov-18 22:43 38.682629 -122.902065 166 27386ft 482kts
25-Nov-18 22:44 38.555675 -122.864649 166 25345ft 443kts
25-Nov-18 22:45 38.438928 -122.830289 166 23327ft 416kts
25-Nov-18 22:46 38.327035 -122.797465 166 21355ft 412kts
25-Nov-18 22:47 38.216911 -122.765273 166 19369ft 401kts
25-Nov-18 22:48 38.111239 -122.734542 166 17380ft 384kts
25-Nov-18 22:49 38.010755 -122.705405 166 15399ft 369kts
25-Nov-18 22:50 37.912402 -122.675959 156 13405ft 354kts
25-Nov-18 22:51 37.836113 -122.605003 139 11419ft 334kts
25-Nov-18 22:52 37.766265 -122.531960 138 10994ft 312kts
25-Nov-18 22:53 37.703124 -122.465101 137 11005ft 292kts
25-Nov-18 22:54 37.640183 -122.396810 125 9965ft 321kts
25-Nov-18 22:55 37.624807 -122.297374 83 8929ft 287kts
25-Nov-18 22:56 37.612114 -122.203967 113 7859ft 273kts
25-Nov-18 22:57 37.579880 -122.119444 113 6458ft 264kts
25-Nov-18 22:58 37.535642 -122.052961 174 4939ft 263kts
25-Nov-18 22:59 37.485601 -122.108187 243 3490ft 255kts
25-Nov-18 23:00 37.508113 -122.180896 313 3028ft 249kts
25-Nov-18 23:01 37.554516 -122.245556 313 2411ft 244kts
25-Nov-18 23:02 37.592704 -122.311195 295 1239ft 200kts
25-Nov-18 23:03 37.612559 -122.360456 298 22ft 118kts
25-Nov-18 23:04 37.619013 -122.377507 263 30ft 24kts
25-Nov-18 23:05 37.619008 -122.380279 284 34ft 15kts
25-Nov-18 23:06 37.618558 -122.381161 205 35ft 0kts
25-Nov-18 23:07 37.618558 -122.381161 205 35ft 0kts
25-Nov-18 23:08 37.618558 -122.381161 205 35ft 0kts

Navigation Log

Ident Type
Flight plan parsing failed, navigation log unavailable